createdAt,value
2022-08-26T00:02:19.291Z,9.15
2022-08-26T00:04:49.395Z,9.75
2022-08-26T00:07:18.943Z,9.88
2022-08-26T00:09:47.477Z,11.00
2022-08-26T00:12:15.903Z,10.18
2022-08-26T00:14:44.272Z,12.02
2022-08-26T00:17:14.012Z,13.48
2022-08-26T00:19:42.232Z,11.52
2022-08-26T00:22:11.586Z,10.27
2022-08-26T00:24:39.869Z,9.98
2022-08-26T00:27:16.253Z,9.70
2022-08-26T00:29:45.880Z,9.07
2022-08-26T00:32:15.970Z,9.13
2022-08-26T00:34:44.492Z,9.95
2022-08-26T00:37:16.156Z,10.02
2022-08-26T00:39:44.632Z,11.95
2022-08-26T00:42:14.134Z,11.40
2022-08-26T00:44:42.421Z,10.38
2022-08-26T00:47:17.569Z,11.23
2022-08-26T00:49:48.767Z,12.90
2022-08-26T00:52:21.934Z,9.52
2022-08-26T00:54:56.390Z,11.88
2022-08-26T00:57:25.620Z,12.15
2022-08-26T00:59:57.815Z,11.95
2022-08-26T01:02:26.915Z,13.48
2022-08-26T01:05:03.365Z,11.15
2022-08-26T01:07:34.814Z,11.90
2022-08-26T01:10:06.253Z,10.75
2022-08-26T01:12:40.697Z,11.15
2022-08-26T01:15:11.396Z,11.07
2022-08-26T01:17:40.511Z,9.60
2022-08-26T01:20:18.228Z,10.75
2022-08-26T01:22:56.613Z,12.73
2022-08-26T01:25:28.541Z,10.57
2022-08-26T01:27:59.728Z,11.15
2022-08-26T01:30:31.163Z,12.07
2022-08-26T01:33:02.654Z,12.75
2022-08-26T01:35:33.068Z,12.07
2022-08-26T01:38:03.056Z,11.73
2022-08-26T01:40:37.270Z,12.02
2022-08-26T01:43:09.442Z,11.35
2022-08-26T01:45:41.594Z,12.07
2022-08-26T01:48:15.303Z,12.40
2022-08-26T01:50:46.261Z,11.82
2022-08-26T01:53:19.300Z,13.25
2022-08-26T01:55:54.238Z,13.88
2022-08-26T01:58:25.581Z,12.35
2022-08-26T02:00:55.606Z,11.05
2022-08-26T02:03:24.843Z,10.95
2022-08-26T02:05:55.592Z,11.20
2022-08-26T02:08:32.119Z,10.48
2022-08-26T02:11:01.310Z,11.43
2022-08-26T02:13:32.842Z,10.07
2022-08-26T02:16:04.089Z,10.43
2022-08-26T02:18:35.933Z,11.55
2022-08-26T02:21:06.732Z,11.60
2022-08-26T02:23:36.663Z,10.73
2022-08-26T02:26:11.678Z,10.43
2022-08-26T02:28:50.947Z,11.00
2022-08-26T02:31:20.115Z,11.30
2022-08-26T02:33:49.301Z,10.07
2022-08-26T02:36:21.920Z,11.52
2022-08-26T02:38:52.057Z,11.63
2022-08-26T02:41:20.546Z,11.73
2022-08-26T02:43:51.454Z,10.85
2022-08-26T02:46:21.464Z,11.55
2022-08-26T02:48:58.362Z,10.70
2022-08-26T02:51:26.806Z,9.57
2022-08-26T02:53:56.983Z,11.90
2022-08-26T02:56:25.518Z,12.52
2022-08-26T02:58:53.919Z,11.90
2022-08-26T03:01:23.920Z,11.98
2022-08-26T03:03:53.228Z,11.27
2022-08-26T03:06:22.051Z,11.30
2022-08-26T03:08:50.405Z,12.73
2022-08-26T03:11:21.358Z,12.05
2022-08-26T03:13:50.511Z,11.30
2022-08-26T03:16:19.238Z,10.98
2022-08-26T03:18:52.426Z,10.65
2022-08-26T03:21:22.427Z,12.63
2022-08-26T03:23:50.710Z,12.05
2022-08-26T03:26:21.373Z,12.02
2022-08-26T03:29:07.335Z,12.95
2022-08-26T03:31:36.275Z,12.30
2022-08-26T03:34:04.677Z,14.05
2022-08-26T03:36:33.686Z,11.55
2022-08-26T03:39:03.902Z,12.82
2022-08-26T03:41:35.109Z,12.73
2022-08-26T03:44:03.797Z,12.70
2022-08-26T03:46:34.180Z,11.77
2022-08-26T03:49:05.233Z,12.88
2022-08-26T03:51:35.239Z,15.02
2022-08-26T03:54:08.846Z,13.48
2022-08-26T03:56:38.655Z,12.80
2022-08-26T03:59:08.677Z,12.48
2022-08-26T04:01:37.708Z,12.88
2022-08-26T04:04:06.572Z,11.50
2022-08-26T04:06:38.530Z,10.35
2022-08-26T04:09:10.108Z,11.25
2022-08-26T04:11:40.528Z,10.50
2022-08-26T04:14:11.144Z,10.48
2022-08-26T04:16:39.838Z,10.20
2022-08-26T04:19:08.762Z,9.40
2022-08-26T04:21:38.354Z,10.63
2022-08-26T04:24:10.280Z,11.57
2022-08-26T04:26:42.541Z,11.82
2022-08-26T04:29:14.193Z,10.50
2022-08-26T04:31:43.152Z,11.23
2022-08-26T04:34:11.834Z,11.85
2022-08-26T04:36:43.153Z,13.27
2022-08-26T04:39:14.901Z,13.15
2022-08-26T04:41:45.586Z,12.07
2022-08-26T04:44:14.981Z,11.25
2022-08-26T04:46:44.176Z,10.88
2022-08-26T04:49:13.616Z,9.77
2022-08-26T04:51:42.292Z,10.13
2022-08-26T04:54:12.433Z,10.57
2022-08-26T04:56:43.923Z,11.57
2022-08-26T04:59:18.135Z,10.45
2022-08-26T05:01:48.694Z,11.95
2022-08-26T05:04:18.771Z,11.68
2022-08-26T05:06:48.367Z,13.45
2022-08-26T05:09:18.406Z,12.48
2022-08-26T05:11:51.926Z,13.13
2022-08-26T05:14:23.490Z,13.07
2022-08-26T05:16:52.213Z,12.70
2022-08-26T05:19:21.054Z,10.85
2022-08-26T05:21:49.856Z,12.02
2022-08-26T05:24:19.020Z,11.95
2022-08-26T05:26:48.248Z,12.75
2022-08-26T05:29:17.010Z,14.68
2022-08-26T05:31:47.059Z,12.80
2022-08-26T05:34:15.918Z,12.13
2022-08-26T05:36:44.487Z,13.68
2022-08-26T05:39:12.906Z,14.82
2022-08-26T05:41:44.882Z,13.50
2022-08-26T05:44:15.197Z,14.02
2022-08-26T05:46:47.072Z,13.43
2022-08-26T05:49:16.849Z,12.18
2022-08-26T05:51:47.982Z,13.07
2022-08-26T05:54:21.723Z,14.70
2022-08-26T05:56:51.992Z,15.27
2022-08-26T05:59:23.961Z,13.48
2022-08-26T06:01:55.293Z,14.00
2022-08-26T06:04:26.719Z,14.23
2022-08-26T06:06:57.081Z,13.65
2022-08-26T06:09:26.648Z,12.85
2022-08-26T06:11:55.913Z,14.15
2022-08-26T06:14:26.045Z,16.17
2022-08-26T06:16:55.943Z,14.70
2022-08-26T06:19:24.514Z,13.85
2022-08-26T06:21:54.872Z,12.50
2022-08-26T06:24:41.053Z,13.80
2022-08-26T06:27:13.870Z,14.57
2022-08-26T06:29:43.524Z,14.48
2022-08-26T06:32:13.217Z,14.35
2022-08-26T06:34:41.442Z,12.70
2022-08-26T06:37:11.143Z,13.05
2022-08-26T06:39:41.200Z,13.63
2022-08-26T06:42:11.062Z,12.57
2022-08-26T06:44:41.695Z,13.15
2022-08-26T06:47:14.400Z,12.05
2022-08-26T06:49:44.326Z,12.23
2022-08-26T07:11:29.391Z,11.88
2022-08-26T07:13:59.517Z,12.65
2022-08-26T07:16:30.015Z,13.48
2022-08-26T07:18:59.334Z,12.52
2022-08-26T07:21:29.969Z,12.95
2022-08-26T07:24:01.485Z,13.45
2022-08-26T07:26:31.946Z,13.68
2022-08-26T07:29:01.830Z,13.85
2022-08-26T07:31:39.549Z,16.00
2022-08-26T07:34:11.803Z,14.38
2022-08-26T07:36:40.094Z,14.63
2022-08-26T07:39:09.218Z,15.23
2022-08-26T07:41:39.347Z,15.15
2022-08-26T07:44:08.830Z,15.23
2022-08-26T07:46:38.681Z,15.13
2022-08-26T07:49:07.119Z,14.52
2022-08-26T07:51:37.206Z,14.30
2022-08-26T07:54:06.978Z,14.52
2022-08-26T07:56:35.742Z,14.32
2022-08-26T07:59:13.320Z,13.23
2022-08-26T08:01:45.090Z,13.93
2022-08-26T08:04:14.221Z,12.27
2022-08-26T08:06:43.988Z,12.52
2022-08-26T08:09:12.962Z,12.00
2022-08-26T08:11:41.673Z,12.52
2022-08-26T08:14:12.971Z,12.77
2022-08-26T08:16:42.348Z,11.75
2022-08-26T08:19:14.707Z,12.95
2022-08-26T08:21:43.223Z,10.88
2022-08-26T08:24:12.032Z,12.75
2022-08-26T08:26:40.815Z,12.15
2022-08-26T08:29:09.623Z,13.00
2022-08-26T08:31:56.628Z,11.65
2022-08-26T08:34:27.425Z,14.05
2022-08-26T08:36:55.962Z,10.93
2022-08-26T08:39:25.568Z,12.93
2022-08-26T08:42:34.535Z,12.82
2022-08-26T08:45:10.300Z,13.02
2022-08-26T08:47:43.220Z,11.98
2022-08-26T08:50:21.220Z,12.57
2022-08-26T08:52:53.057Z,11.90
2022-08-26T08:55:21.546Z,11.93
2022-08-26T08:58:02.149Z,10.93
2022-08-26T09:00:39.803Z,11.95
2022-08-26T09:03:18.860Z,10.73
2022-08-26T09:05:51.525Z,10.27
2022-08-26T09:08:24.925Z,11.18
2022-08-26T09:10:56.124Z,9.70
2022-08-26T09:13:27.150Z,12.30
2022-08-26T09:16:04.457Z,10.85
2022-08-26T09:18:59.152Z,11.27
2022-08-26T09:21:28.264Z,11.82
2022-08-26T09:23:57.260Z,9.98
2022-08-26T09:26:29.668Z,11.02
2022-08-26T09:29:01.376Z,10.95
2022-08-26T09:31:31.966Z,9.88
2022-08-26T09:34:17.576Z,10.80
2022-08-26T09:36:48.651Z,9.45
2022-08-26T09:39:33.460Z,8.95
2022-08-26T09:42:09.614Z,8.73
2022-08-26T09:44:57.150Z,7.88
2022-08-26T09:47:31.598Z,8.93
2022-08-26T09:50:09.709Z,9.50
2022-08-26T09:52:42.733Z,9.05
2022-08-26T09:55:16.108Z,9.00
2022-08-26T09:57:51.100Z,8.98
2022-08-26T10:00:29.537Z,8.30
2022-08-26T10:02:59.651Z,8.55
2022-08-26T10:05:37.458Z,9.07
2022-08-26T10:08:25.550Z,9.35
2022-08-26T10:10:56.376Z,8.40
2022-08-26T10:13:31.363Z,8.02
2022-08-26T10:16:12.504Z,8.70
2022-08-26T10:18:46.459Z,8.63
2022-08-26T10:21:21.434Z,8.63
2022-08-26T10:23:53.025Z,9.10
2022-08-26T10:26:26.934Z,8.48
2022-08-26T10:29:01.530Z,8.07
2022-08-26T10:31:40.113Z,7.65
2022-08-26T10:34:09.567Z,8.35
2022-08-26T10:37:14.525Z,8.55
2022-08-26T10:39:46.207Z,9.45
2022-08-26T10:42:23.305Z,9.32
2022-08-26T10:44:54.244Z,9.77
2022-08-26T10:47:35.423Z,8.25
2022-08-26T10:50:04.731Z,9.10
2022-08-26T10:52:50.165Z,8.40
2022-08-26T10:55:25.648Z,9.32
2022-08-26T10:58:05.417Z,8.18
2022-08-26T11:00:58.304Z,7.93
2022-08-26T11:03:35.574Z,9.18
2022-08-26T11:06:24.616Z,8.20
2022-08-26T11:08:55.503Z,9.23
2022-08-26T11:11:53.934Z,8.07
2022-08-26T11:14:53.566Z,10.40
2022-08-26T11:17:58.371Z,7.80
2022-08-26T11:20:41.677Z,7.85
2022-08-26T11:23:50.776Z,8.88
2022-08-26T11:26:55.021Z,7.88
2022-08-26T11:29:53.922Z,8.70
2022-08-26T11:32:27.525Z,8.73
2022-08-26T11:34:58.364Z,8.68
2022-08-26T11:37:34.335Z,9.18
2022-08-26T11:40:07.627Z,8.88
2022-08-26T11:42:42.731Z,8.20
2022-08-26T11:45:20.479Z,7.70
2022-08-26T11:47:49.313Z,8.27
2022-08-26T11:50:23.511Z,7.88
2022-08-26T11:52:53.501Z,7.90
2022-08-26T11:55:23.487Z,7.70
2022-08-26T11:57:57.640Z,7.68
2022-08-26T12:00:33.331Z,7.85
2022-08-26T12:03:07.777Z,7.85
2022-08-26T12:05:39.485Z,8.20
2022-08-26T12:08:11.188Z,7.43
2022-08-26T12:10:40.492Z,8.90
2022-08-26T12:13:21.990Z,8.10
2022-08-26T12:15:55.901Z,8.43
2022-08-26T12:18:29.421Z,8.02
2022-08-26T12:21:01.332Z,8.38
2022-08-26T12:23:41.419Z,8.20
2022-08-26T12:26:14.277Z,8.55
2022-08-26T12:28:51.773Z,6.40
2022-08-26T12:31:28.318Z,4.72
2022-08-26T12:33:59.187Z,3.67
2022-08-26T12:36:31.982Z,3.20
2022-08-26T12:39:11.196Z,3.10
2022-08-26T12:41:42.825Z,2.80
2022-08-26T12:44:36.542Z,2.30
2022-08-26T12:47:12.449Z,2.58
2022-08-26T12:49:42.380Z,2.35
2022-08-26T12:52:30.147Z,2.10
2022-08-26T12:55:00.335Z,1.30
2022-08-26T12:57:32.288Z,1.88
2022-08-26T13:00:35.341Z,1.50
2022-08-26T13:03:04.729Z,1.70
2022-08-26T13:05:35.604Z,1.48
2022-08-26T13:08:12.150Z,1.67
2022-08-26T13:10:43.363Z,1.55
2022-08-26T13:13:11.757Z,1.73
2022-08-26T13:15:41.483Z,1.50
2022-08-26T13:18:09.870Z,1.50
2022-08-26T13:20:44.003Z,1.88
2022-08-26T13:23:12.532Z,2.08
2022-08-26T13:25:41.214Z,1.60
2022-08-26T13:28:09.943Z,1.60
2022-08-26T13:30:38.155Z,1.63
2022-08-26T13:33:08.682Z,1.30
2022-08-26T13:35:40.545Z,1.40
2022-08-26T13:38:14.757Z,1.52
2022-08-26T13:41:02.804Z,2.00
2022-08-26T13:43:31.480Z,1.63
2022-08-26T13:46:01.669Z,1.95
2022-08-26T13:48:34.003Z,2.00
2022-08-26T13:51:03.375Z,2.50
2022-08-26T13:53:37.264Z,2.00
2022-08-26T13:56:08.068Z,2.13
2022-08-26T13:58:39.370Z,1.88
2022-08-26T14:01:09.154Z,1.92
2022-08-26T14:03:39.233Z,2.17
2022-08-26T14:06:07.624Z,2.45
2022-08-26T14:08:36.997Z,2.58
2022-08-26T14:11:05.404Z,2.80
2022-08-26T14:13:34.032Z,2.45
2022-08-26T14:16:03.683Z,2.42
2022-08-26T14:18:39.712Z,2.65
2022-08-26T14:21:13.838Z,2.25
2022-08-26T14:23:42.548Z,2.50
2022-08-26T14:26:14.357Z,2.33
2022-08-26T14:31:26.977Z,2.40
2022-08-26T14:33:57.991Z,1.98
2022-08-26T14:36:32.197Z,2.40
2022-08-26T14:39:03.355Z,2.08
2022-08-26T14:41:32.963Z,2.38
2022-08-26T14:44:04.975Z,2.20
2022-08-26T14:46:43.414Z,2.25
2022-08-26T14:49:12.115Z,2.40
2022-08-26T14:51:41.911Z,2.33
2022-08-26T14:54:12.695Z,2.35
2022-08-26T14:56:44.998Z,2.72
2022-08-26T14:59:13.936Z,2.20
2022-08-26T15:01:42.329Z,2.42
2022-08-26T15:04:10.725Z,2.00
2022-08-26T15:06:39.434Z,2.53
2022-08-26T15:09:09.546Z,2.63
2022-08-26T15:11:38.231Z,2.95
2022-08-26T15:14:06.784Z,2.42
2022-08-26T15:16:35.460Z,2.30
2022-08-26T15:19:05.428Z,2.85
2022-08-26T15:21:34.305Z,2.38
2022-08-26T15:24:03.623Z,2.58
2022-08-26T15:26:34.055Z,2.78
2022-08-26T15:29:04.991Z,2.05
2022-08-26T15:31:34.243Z,1.95
2022-08-26T15:34:05.917Z,2.17
2022-08-26T15:36:37.340Z,2.17
2022-08-26T15:39:08.673Z,2.35
2022-08-26T15:41:38.888Z,1.90
2022-08-26T15:44:08.408Z,2.00
2022-08-26T15:46:37.542Z,2.33
2022-08-26T15:49:07.722Z,2.30
2022-08-26T15:51:45.437Z,2.55
2022-08-26T15:54:16.693Z,1.80
2022-08-26T15:56:49.258Z,2.03
2022-08-26T15:59:17.960Z,2.35
2022-08-26T16:01:47.786Z,2.40
2022-08-26T16:04:16.155Z,2.25
2022-08-26T16:06:47.304Z,2.80
2022-08-26T16:09:16.134Z,2.97
2022-08-26T16:11:45.814Z,2.78
2022-08-26T16:14:14.033Z,2.45
2022-08-26T16:16:42.462Z,2.25
2022-08-26T16:19:11.653Z,2.35
2022-08-26T16:21:41.962Z,3.08
2022-08-26T16:24:10.705Z,2.25
2022-08-26T16:26:41.281Z,2.58
2022-08-26T16:29:12.984Z,2.72
2022-08-26T16:31:41.812Z,2.28
2022-08-26T16:34:10.785Z,2.47
2022-08-26T16:36:40.436Z,2.45
2022-08-26T16:39:10.111Z,2.75
2022-08-26T16:41:38.678Z,2.70
2022-08-26T16:44:08.172Z,2.72
2022-08-26T16:46:39.601Z,2.63
2022-08-26T16:49:08.138Z,3.35
2022-08-26T16:51:38.110Z,2.60
2022-08-26T16:54:08.200Z,3.00
2022-08-26T16:56:36.741Z,3.17
2022-08-26T16:59:05.829Z,2.70
2022-08-26T17:01:34.316Z,2.65
2022-08-26T17:04:04.461Z,2.70
2022-08-26T17:06:32.613Z,2.90
2022-08-26T17:09:00.967Z,2.97
2022-08-26T17:11:29.380Z,2.67
2022-08-26T17:13:58.079Z,3.22
2022-08-26T17:16:27.046Z,2.83
2022-08-26T17:18:56.844Z,3.22
2022-08-26T17:21:28.420Z,3.40
2022-08-26T17:23:57.348Z,3.38
2022-08-26T17:26:25.741Z,3.38
2022-08-26T17:28:54.582Z,3.28
2022-08-26T17:31:24.066Z,3.30
2022-08-26T17:33:53.902Z,3.50
2022-08-26T17:36:28.195Z,3.13
2022-08-26T17:38:59.610Z,3.35
2022-08-26T17:41:29.039Z,3.75
2022-08-26T17:43:57.611Z,3.80
2022-08-26T17:46:26.134Z,3.17
2022-08-26T17:48:54.451Z,4.28
2022-08-26T17:51:23.551Z,3.53
2022-08-26T17:53:52.715Z,3.67
2022-08-26T17:56:26.547Z,3.55
2022-08-26T17:58:56.503Z,3.63
2022-08-26T18:01:27.927Z,3.72
2022-08-26T18:04:00.331Z,4.45
2022-08-26T18:06:30.371Z,4.18
2022-08-26T18:08:59.333Z,3.78
2022-08-26T18:11:29.869Z,4.22
2022-08-26T18:13:58.249Z,3.88
2022-08-26T18:16:26.574Z,4.55
2022-08-26T18:18:56.532Z,5.10
2022-08-26T18:21:27.257Z,4.68
2022-08-26T18:23:56.485Z,4.70
2022-08-26T18:26:26.907Z,5.00
2022-08-26T18:28:57.117Z,4.80
2022-08-26T18:31:25.934Z,4.72
2022-08-26T18:33:54.538Z,4.13
2022-08-26T18:36:24.556Z,5.03
2022-08-26T18:38:54.019Z,4.07
2022-08-26T18:41:24.478Z,4.25
2022-08-26T18:43:54.176Z,4.80
2022-08-26T18:46:26.947Z,4.40
2022-08-26T18:48:55.815Z,4.45
2022-08-26T18:51:29.597Z,4.75
2022-08-26T18:53:59.133Z,5.07
2022-08-26T18:56:28.632Z,4.82
2022-08-26T18:58:58.452Z,4.63
2022-08-26T19:01:29.809Z,4.40
2022-08-26T19:03:59.464Z,4.57
2022-08-26T19:06:31.709Z,5.85
2022-08-26T19:09:00.669Z,5.05
2022-08-26T19:11:31.657Z,5.78
2022-08-26T19:14:01.641Z,4.85
2022-08-26T19:16:32.116Z,5.80
2022-08-26T19:19:01.909Z,4.55
2022-08-26T19:21:30.980Z,5.15
2022-08-26T19:24:00.964Z,4.80
2022-08-26T19:26:29.554Z,5.55
2022-08-26T19:28:58.269Z,5.13
2022-08-26T19:31:26.847Z,5.22
2022-08-26T19:33:58.148Z,6.07
2022-08-26T19:36:27.917Z,6.90
2022-08-26T19:38:57.139Z,5.60
2022-08-26T19:41:37.013Z,6.35
2022-08-26T19:44:09.970Z,5.20
2022-08-26T19:49:13.843Z,5.40
2022-08-26T19:51:42.065Z,5.10
2022-08-26T19:54:10.162Z,5.82
2022-08-26T19:56:38.490Z,5.97
2022-08-26T19:59:06.726Z,6.15
2022-08-26T20:01:35.269Z,5.75
2022-08-26T20:04:04.128Z,5.90
2022-08-26T20:06:34.789Z,6.63
2022-08-26T20:09:03.145Z,6.45
2022-08-26T20:11:31.750Z,6.10
2022-08-26T20:14:00.080Z,5.72
2022-08-26T20:16:28.340Z,6.95
2022-08-26T20:19:14.285Z,6.28
2022-08-26T20:21:44.176Z,8.18
2022-08-26T20:24:15.600Z,6.32
2022-08-26T20:26:45.513Z,6.28
2022-08-26T20:29:16.627Z,6.07
2022-08-26T20:31:45.150Z,6.13
2022-08-26T20:34:14.458Z,6.30
2022-08-26T20:36:45.077Z,7.38
2022-08-26T20:39:14.607Z,6.57
2022-08-26T20:41:43.914Z,8.07
2022-08-26T20:44:13.272Z,7.70
2022-08-26T20:46:42.310Z,6.90
2022-08-26T20:49:10.822Z,6.22
2022-08-26T20:51:39.419Z,6.40
2022-08-26T20:54:09.660Z,8.27
2022-08-26T20:56:37.989Z,7.20
2022-08-26T20:59:07.949Z,7.88
2022-08-26T21:01:42.118Z,8.05
2022-08-26T21:04:17.809Z,8.02
2022-08-26T21:06:52.609Z,8.73
2022-08-26T21:09:23.977Z,7.53
2022-08-26T21:11:54.738Z,8.43
2022-08-26T21:14:26.012Z,7.40
2022-08-26T21:16:54.751Z,8.45
2022-08-26T21:19:23.195Z,8.07
2022-08-26T21:21:51.913Z,8.32
2022-08-26T21:24:20.405Z,8.35
2022-08-26T21:26:49.969Z,8.43
2022-08-26T21:29:18.303Z,9.48
2022-08-26T21:31:47.071Z,8.30
2022-08-26T21:34:17.006Z,8.02
2022-08-26T21:36:45.643Z,7.60
2022-08-26T21:39:14.934Z,7.78
2022-08-26T21:41:44.558Z,7.20
2022-08-26T21:44:15.580Z,6.85
2022-08-26T21:46:45.265Z,7.22
2022-08-26T21:49:15.682Z,7.13
2022-08-26T21:51:47.796Z,7.75
2022-08-26T21:54:17.047Z,7.53
2022-08-26T21:56:47.817Z,6.40
2022-08-26T21:59:19.601Z,7.55
2022-08-26T22:01:48.743Z,8.70
2022-08-26T22:04:17.243Z,8.45
2022-08-26T22:06:47.745Z,7.82
2022-08-26T22:09:18.881Z,8.65
2022-08-26T22:11:47.979Z,7.75
2022-08-26T22:14:19.374Z,7.25
2022-08-26T22:16:50.503Z,9.68
2022-08-26T22:19:19.996Z,9.65
2022-08-26T22:21:50.814Z,10.35
2022-08-26T22:24:19.937Z,9.40
2022-08-26T22:26:49.376Z,9.10
2022-08-26T22:29:20.041Z,9.48
2022-08-26T22:31:48.513Z,9.45
2022-08-26T22:34:19.573Z,7.50
2022-08-26T22:36:50.216Z,8.68
2022-08-26T22:39:21.166Z,8.60
2022-08-26T22:41:50.432Z,7.85
2022-08-26T22:44:22.169Z,8.05
2022-08-26T22:46:54.390Z,9.60
2022-08-26T22:49:22.837Z,10.75
2022-08-26T22:51:52.004Z,10.40
2022-08-26T22:54:20.458Z,9.43
2022-08-26T22:56:48.656Z,11.63
2022-08-26T22:59:17.294Z,11.82
2022-08-26T23:01:47.507Z,11.77
2022-08-26T23:04:16.202Z,10.88
2022-08-26T23:06:47.518Z,10.90
2022-08-26T23:09:18.249Z,9.60
2022-08-26T23:11:47.752Z,11.32
2022-08-26T23:14:17.635Z,11.13
2022-08-26T23:16:47.627Z,10.80
2022-08-26T23:19:17.875Z,10.63
2022-08-26T23:21:46.748Z,12.02
2022-08-26T23:24:15.865Z,11.30
2022-08-26T23:26:45.186Z,11.93
2022-08-26T23:29:15.648Z,11.00
2022-08-26T23:31:44.383Z,11.32
2022-08-26T23:34:33.236Z,9.45
2022-08-26T23:37:01.920Z,9.38
2022-08-26T23:39:32.199Z,8.88
2022-08-26T23:42:01.823Z,8.77
2022-08-26T23:44:30.923Z,9.00
2022-08-26T23:46:59.788Z,9.77
2022-08-26T23:49:30.236Z,8.95
2022-08-26T23:52:16.222Z,9.38
2022-08-26T23:54:45.307Z,10.23
2022-08-26T23:57:13.823Z,9.07
2022-08-26T23:59:42.424Z,10.90
